sensor_id;sensor_type;location;lat;lon;timestamp;P1;durP1;ratioP1;P2;durP2;ratioP2
49237;SDS011;35069;47.906;1.892;2022-09-29T06:01:30;4.82;;;2.15;;
49237;SDS011;35069;47.906;1.892;2022-09-29T06:03:57;3.35;;;1.70;;
49237;SDS011;35069;47.906;1.892;2022-09-29T06:06:26;4.65;;;2.60;;
49237;SDS011;35069;47.906;1.892;2022-09-29T06:08:53;5.30;;;2.55;;
49237;SDS011;35069;47.906;1.892;2022-09-29T06:11:23;3.75;;;2.50;;
49237;SDS011;35069;47.906;1.892;2022-09-29T06:13:53;3.05;;;1.77;;
49237;SDS011;35069;47.906;1.892;2022-09-29T06:16:20;4.53;;;2.20;;
49237;SDS011;35069;47.906;1.892;2022-09-29T06:18:47;5.65;;;1.90;;
49237;SDS011;35069;47.906;1.892;2022-09-29T06:21:15;2.85;;;1.95;;
49237;SDS011;35069;47.906;1.892;2022-09-29T06:23:43;7.03;;;2.03;;
49237;SDS011;35069;47.906;1.892;2022-09-29T06:26:10;8.77;;;2.47;;
49237;SDS011;35069;47.906;1.892;2022-09-29T06:28:38;2.90;;;1.92;;
49237;SDS011;35069;47.906;1.892;2022-09-29T06:31:07;7.15;;;2.13;;
49237;SDS011;35069;47.906;1.892;2022-09-29T06:33:36;7.40;;;3.03;;
49237;SDS011;35069;47.906;1.892;2022-09-29T06:38:59;9.63;;;2.63;;
49237;SDS011;35069;47.906;1.892;2022-09-29T06:41:25;5.65;;;2.20;;
49237;SDS011;35069;47.906;1.892;2022-09-29T06:43:52;7.57;;;3.13;;
49237;SDS011;35069;47.906;1.892;2022-09-29T06:46:18;3.20;;;1.73;;
49237;SDS011;35069;47.906;1.892;2022-09-29T06:48:44;8.30;;;2.50;;
49237;SDS011;35069;47.906;1.892;2022-09-29T06:51:10;4.95;;;2.20;;
49237;SDS011;35069;47.906;1.892;2022-09-29T06:53:35;8.55;;;2.63;;
49237;SDS011;35069;47.906;1.892;2022-09-29T06:56:01;5.65;;;2.08;;
49237;SDS011;35069;47.906;1.892;2022-09-29T06:58:27;5.65;;;2.72;;
49237;SDS011;35069;47.906;1.892;2022-09-29T15:04:23;2.88;;;0.70;;
49237;SDS011;35069;47.906;1.892;2022-09-29T15:06:49;2.28;;;0.75;;
49237;SDS011;35069;47.906;1.892;2022-09-29T15:09:17;1.25;;;0.47;;
49237;SDS011;35069;47.906;1.892;2022-09-29T15:11:44;0.88;;;0.80;;
49237;SDS011;35069;47.906;1.892;2022-09-29T15:19:51;1.52;;;0.57;;
49237;SDS011;35069;47.906;1.892;2022-09-29T15:25:29;2.25;;;0.80;;
49237;SDS011;35069;47.906;1.892;2022-09-29T15:27:59;1.10;;;0.80;;
49237;SDS011;35069;47.906;1.892;2022-09-29T15:30:25;0.88;;;0.60;;
49237;SDS011;35069;47.906;1.892;2022-09-29T15:32:53;1.55;;;0.73;;
49237;SDS011;35069;47.906;1.892;2022-09-29T15:35:38;2.05;;;0.70;;
49237;SDS011;35069;47.906;1.892;2022-09-29T15:40:34;2.88;;;1.00;;
49237;SDS011;35069;47.906;1.892;2022-09-29T15:43:17;1.17;;;0.70;;
49237;SDS011;35069;47.906;1.892;2022-09-29T15:45:55;0.30;;;0.30;;
49237;SDS011;35069;47.906;1.892;2022-09-29T15:48:23;2.03;;;0.50;;
49237;SDS011;35069;47.906;1.892;2022-09-29T15:50:49;2.75;;;0.45;;
49237;SDS011;35069;47.906;1.892;2022-09-29T15:53:16;0.93;;;0.40;;
49237;SDS011;35069;47.906;1.892;2022-09-29T15:55:42;2.20;;;1.20;;
49237;SDS011;35069;47.906;1.892;2022-09-29T15:58:32;2.97;;;0.85;;
49237;SDS011;35069;47.906;1.892;2022-09-29T16:03:33;1.42;;;0.40;;
49237;SDS011;35069;47.906;1.892;2022-09-29T16:08:48;4.03;;;0.73;;
49237;SDS011;35069;47.906;1.892;2022-09-29T16:11:19;1.85;;;1.05;;
49237;SDS011;35069;47.906;1.892;2022-09-29T16:13:47;4.75;;;1.42;;
49237;SDS011;35069;47.906;1.892;2022-09-29T16:16:18;1.52;;;0.93;;
49237;SDS011;35069;47.906;1.892;2022-09-29T16:18:51;6.32;;;1.15;;
49237;SDS011;35069;47.906;1.892;2022-09-29T16:21:19;4.28;;;0.90;;
49237;SDS011;35069;47.906;1.892;2022-09-29T16:23:48;6.57;;;1.70;;
49237;SDS011;35069;47.906;1.892;2022-09-29T16:26:34;3.20;;;1.15;;
49237;SDS011;35069;47.906;1.892;2022-09-29T16:31:47;1.55;;;1.45;;
49237;SDS011;35069;47.906;1.892;2022-09-29T16:36:58;2.50;;;0.70;;
49237;SDS011;35069;47.906;1.892;2022-09-29T16:39:31;2.53;;;0.98;;
49237;SDS011;35069;47.906;1.892;2022-09-29T16:42:15;3.53;;;0.80;;
49237;SDS011;35069;47.906;1.892;2022-09-29T16:44:48;1.42;;;1.10;;
49237;SDS011;35069;47.906;1.892;2022-09-29T16:47:15;1.42;;;1.33;;
49237;SDS011;35069;47.906;1.892;2022-09-29T16:52:20;2.03;;;0.95;;
49237;SDS011;35069;47.906;1.892;2022-09-29T16:54:50;2.60;;;1.55;;
49237;SDS011;35069;47.906;1.892;2022-09-29T16:59:55;4.68;;;2.05;;
49237;SDS011;35069;47.906;1.892;2022-09-29T17:02:23;6.93;;;3.10;;
49237;SDS011;35069;47.906;1.892;2022-09-29T17:04:49;8.77;;;5.60;;
49237;SDS011;35069;47.906;1.892;2022-09-29T17:07:16;4.60;;;3.25;;
49237;SDS011;35069;47.906;1.892;2022-09-29T17:09:44;4.72;;;2.22;;
49237;SDS011;35069;47.906;1.892;2022-09-29T17:12:12;3.25;;;1.30;;
49237;SDS011;35069;47.906;1.892;2022-09-29T17:14:39;2.63;;;1.52;;
49237;SDS011;35069;47.906;1.892;2022-09-29T17:17:04;4.28;;;2.08;;
49237;SDS011;35069;47.906;1.892;2022-09-29T17:19:30;1.45;;;1.35;;
49237;SDS011;35069;47.906;1.892;2022-09-29T17:21:56;5.60;;;2.03;;
49237;SDS011;35069;47.906;1.892;2022-09-29T17:24:23;2.53;;;1.38;;
49237;SDS011;35069;47.906;1.892;2022-09-29T17:26:49;3.33;;;2.20;;
49237;SDS011;35069;47.906;1.892;2022-09-29T17:29:33;2.90;;;2.00;;
49237;SDS011;35069;47.906;1.892;2022-09-29T17:32:00;3.88;;;2.22;;
49237;SDS011;35069;47.906;1.892;2022-09-29T17:34:26;8.02;;;2.80;;
49237;SDS011;35069;47.906;1.892;2022-09-29T17:36:54;3.33;;;2.25;;
49237;SDS011;35069;47.906;1.892;2022-09-29T17:39:24;5.07;;;2.08;;
49237;SDS011;35069;47.906;1.892;2022-09-29T17:41:50;8.35;;;2.10;;
49237;SDS011;35069;47.906;1.892;2022-09-29T17:44:15;3.58;;;2.42;;
49237;SDS011;35069;47.906;1.892;2022-09-29T17:46:41;4.88;;;2.35;;
49237;SDS011;35069;47.906;1.892;2022-09-29T17:49:10;3.20;;;2.60;;
49237;SDS011;35069;47.906;1.892;2022-09-29T17:51:37;6.53;;;3.10;;
49237;SDS011;35069;47.906;1.892;2022-09-29T17:54:02;4.50;;;2.65;;
49237;SDS011;35069;47.906;1.892;2022-09-29T17:56:29;4.72;;;3.10;;
49237;SDS011;35069;47.906;1.892;2022-09-29T17:59:01;5.55;;;3.47;;
49237;SDS011;35069;47.906;1.892;2022-09-29T18:01:30;11.52;;;6.38;;
49237;SDS011;35069;47.906;1.892;2022-09-29T18:04:00;13.25;;;5.35;;
49237;SDS011;35069;47.906;1.892;2022-09-29T18:06:28;7.43;;;3.70;;
49237;SDS011;35069;47.906;1.892;2022-09-29T18:08:54;4.55;;;2.83;;
49237;SDS011;35069;47.906;1.892;2022-09-29T18:11:22;6.63;;;3.45;;
49237;SDS011;35069;47.906;1.892;2022-09-29T18:13:49;9.75;;;3.58;;
49237;SDS011;35069;47.906;1.892;2022-09-29T18:16:19;4.43;;;2.88;;
49237;SDS011;35069;47.906;1.892;2022-09-29T18:18:46;5.30;;;2.03;;
49237;SDS011;35069;47.906;1.892;2022-09-29T18:21:12;5.32;;;2.72;;
49237;SDS011;35069;47.906;1.892;2022-09-29T18:23:42;6.18;;;2.67;;
49237;SDS011;35069;47.906;1.892;2022-09-29T18:26:09;4.68;;;1.85;;
49237;SDS011;35069;47.906;1.892;2022-09-29T18:28:35;4.03;;;2.50;;
49237;SDS011;35069;47.906;1.892;2022-09-29T18:31:02;4.30;;;2.22;;
49237;SDS011;35069;47.906;1.892;2022-09-29T18:33:30;3.63;;;2.30;;
49237;SDS011;35069;47.906;1.892;2022-09-29T18:35:57;3.28;;;2.00;;
49237;SDS011;35069;47.906;1.892;2022-09-29T18:38:24;4.53;;;2.72;;
49237;SDS011;35069;47.906;1.892;2022-09-29T18:40:50;5.00;;;3.35;;
49237;SDS011;35069;47.906;1.892;2022-09-29T18:43:18;3.75;;;2.75;;
49237;SDS011;35069;47.906;1.892;2022-09-29T18:45:45;5.82;;;3.53;;
49237;SDS011;35069;47.906;1.892;2022-09-29T18:48:13;4.88;;;2.50;;
49237;SDS011;35069;47.906;1.892;2022-09-29T18:50:40;6.05;;;2.67;;
49237;SDS011;35069;47.906;1.892;2022-09-29T18:53:08;5.82;;;2.35;;
49237;SDS011;35069;47.906;1.892;2022-09-29T18:55:34;2.67;;;2.28;;
49237;SDS011;35069;47.906;1.892;2022-09-29T18:58:00;2.58;;;2.30;;
49237;SDS011;35069;47.906;1.892;2022-09-29T19:00:27;4.40;;;3.40;;
49237;SDS011;35069;47.906;1.892;2022-09-29T19:02:55;4.03;;;3.20;;
49237;SDS011;35069;47.906;1.892;2022-09-29T19:05:24;6.13;;;2.60;;
49237;SDS011;35069;47.906;1.892;2022-09-29T19:07:53;6.77;;;3.47;;
49237;SDS011;35069;47.906;1.892;2022-09-29T19:10:20;4.47;;;2.80;;
49237;SDS011;35069;47.906;1.892;2022-09-29T19:12:47;3.53;;;2.38;;
49237;SDS011;35069;47.906;1.892;2022-09-29T19:15:15;4.60;;;2.65;;
49237;SDS011;35069;47.906;1.892;2022-09-29T19:17:45;3.72;;;2.80;;
49237;SDS011;35069;47.906;1.892;2022-09-29T19:20:12;5.95;;;2.60;;
49237;SDS011;35069;47.906;1.892;2022-09-29T19:22:40;8.70;;;2.70;;
49237;SDS011;35069;47.906;1.892;2022-09-29T19:25:09;4.35;;;2.67;;
49237;SDS011;35069;47.906;1.892;2022-09-29T19:27:40;3.20;;;2.47;;
49237;SDS011;35069;47.906;1.892;2022-09-29T19:30:07;6.30;;;3.35;;
49237;SDS011;35069;47.906;1.892;2022-09-29T19:32:37;9.80;;;4.43;;
49237;SDS011;35069;47.906;1.892;2022-09-29T19:35:03;5.68;;;4.65;;
49237;SDS011;35069;47.906;1.892;2022-09-29T19:37:31;5.05;;;3.38;;
49237;SDS011;35069;47.906;1.892;2022-09-29T19:39:57;7.65;;;4.13;;
49237;SDS011;35069;47.906;1.892;2022-09-29T19:42:22;6.35;;;4.38;;
49237;SDS011;35069;47.906;1.892;2022-09-29T19:44:48;7.25;;;4.30;;
49237;SDS011;35069;47.906;1.892;2022-09-29T19:47:15;7.20;;;4.03;;
49237;SDS011;35069;47.906;1.892;2022-09-29T19:49:40;6.53;;;3.13;;
49237;SDS011;35069;47.906;1.892;2022-09-29T19:52:06;5.60;;;4.18;;
49237;SDS011;35069;47.906;1.892;2022-09-29T19:54:33;4.80;;;4.20;;
49237;SDS011;35069;47.906;1.892;2022-09-29T19:57:03;5.93;;;5.05;;
49237;SDS011;35069;47.906;1.892;2022-09-29T19:59:34;6.50;;;5.25;;
49237;SDS011;35069;47.906;1.892;2022-09-29T20:02:03;6.85;;;4.43;;
49237;SDS011;35069;47.906;1.892;2022-09-29T20:04:33;10.07;;;5.05;;
49237;SDS011;35069;47.906;1.892;2022-09-29T20:06:59;7.72;;;6.63;;
49237;SDS011;35069;47.906;1.892;2022-09-29T20:09:26;7.35;;;4.72;;
49237;SDS011;35069;47.906;1.892;2022-09-29T20:11:52;9.48;;;5.65;;
49237;SDS011;35069;47.906;1.892;2022-09-29T20:14:19;8.38;;;5.53;;
49237;SDS011;35069;47.906;1.892;2022-09-29T20:16:50;9.13;;;5.57;;
49237;SDS011;35069;47.906;1.892;2022-09-29T20:19:19;12.27;;;5.95;;
49237;SDS011;35069;47.906;1.892;2022-09-29T20:21:46;10.52;;;6.22;;
49237;SDS011;35069;47.906;1.892;2022-09-29T20:24:15;9.00;;;6.45;;
49237;SDS011;35069;47.906;1.892;2022-09-29T20:26:43;12.50;;;7.05;;
49237;SDS011;35069;47.906;1.892;2022-09-29T20:29:11;14.07;;;7.47;;
49237;SDS011;35069;47.906;1.892;2022-09-29T20:31:44;12.05;;;8.15;;
49237;SDS011;35069;47.906;1.892;2022-09-29T20:34:10;10.88;;;7.82;;
49237;SDS011;35069;47.906;1.892;2022-09-29T20:36:37;12.50;;;8.10;;
49237;SDS011;35069;47.906;1.892;2022-09-29T20:39:03;13.52;;;7.97;;
49237;SDS011;35069;47.906;1.892;2022-09-29T20:41:28;13.45;;;8.43;;
49237;SDS011;35069;47.906;1.892;2022-09-29T20:43:54;13.93;;;9.50;;
49237;SDS011;35069;47.906;1.892;2022-09-29T20:46:21;13.10;;;8.95;;
49237;SDS011;35069;47.906;1.892;2022-09-29T20:48:51;14.38;;;10.40;;
49237;SDS011;35069;47.906;1.892;2022-09-29T20:51:18;14.95;;;9.27;;
49237;SDS011;35069;47.906;1.892;2022-09-29T20:53:54;14.45;;;9.32;;
49237;SDS011;35069;47.906;1.892;2022-09-29T20:56:23;14.73;;;9.40;;
49237;SDS011;35069;47.906;1.892;2022-09-29T20:58:55;13.98;;;9.65;;
49237;SDS011;35069;47.906;1.892;2022-09-29T21:01:22;11.60;;;8.48;;
49237;SDS011;35069;47.906;1.892;2022-09-29T21:03:51;12.32;;;8.48;;
49237;SDS011;35069;47.906;1.892;2022-09-29T21:08:49;12.90;;;8.30;;
49237;SDS011;35069;47.906;1.892;2022-09-29T21:11:15;19.30;;;10.68;;
49237;SDS011;35069;47.906;1.892;2022-09-29T21:13:41;16.17;;;10.20;;
49237;SDS011;35069;47.906;1.892;2022-09-29T21:16:10;13.70;;;9.52;;
49237;SDS011;35069;47.906;1.892;2022-09-29T21:18:36;14.93;;;10.10;;
49237;SDS011;35069;47.906;1.892;2022-09-29T21:21:02;19.35;;;9.38;;
49237;SDS011;35069;47.906;1.892;2022-09-29T21:23:30;12.05;;;8.63;;
49237;SDS011;35069;47.906;1.892;2022-09-29T21:26:00;10.48;;;7.28;;
49237;SDS011;35069;47.906;1.892;2022-09-29T21:28:27;10.57;;;7.03;;
49237;SDS011;35069;47.906;1.892;2022-09-29T21:31:09;12.32;;;7.18;;
49237;SDS011;35069;47.906;1.892;2022-09-29T21:33:36;9.52;;;6.30;;
49237;SDS011;35069;47.906;1.892;2022-09-29T21:36:04;12.23;;;6.78;;
49237;SDS011;35069;47.906;1.892;2022-09-29T21:38:35;11.23;;;6.47;;
49237;SDS011;35069;47.906;1.892;2022-09-29T21:43:33;10.43;;;7.10;;
49237;SDS011;35069;47.906;1.892;2022-09-29T21:46:00;9.93;;;6.65;;
49237;SDS011;35069;47.906;1.892;2022-09-29T21:48:27;8.63;;;6.25;;
49237;SDS011;35069;47.906;1.892;2022-09-29T21:51:03;8.70;;;6.85;;
49237;SDS011;35069;47.906;1.892;2022-09-29T21:53:31;8.32;;;6.15;;
49237;SDS011;35069;47.906;1.892;2022-09-29T21:56:02;8.80;;;7.20;;
49237;SDS011;35069;47.906;1.892;2022-09-29T21:58:30;8.18;;;6.40;;
